AEE946 LGAV-OLBA
Flight info
| Callsign | AEE946 |
|---|---|
| Flight time | 1h 27m |
| Altitude | 37000 |
| Route | KEA UL995 RDS UM601 EVENO M601 LCA/N0376F270 R19 KUKLA |
| Aircraft | A320/M-SDE3FGHIRWY/LB1 |
Departure
| Time | 2026-05-04 15:56 |
|---|---|
| Airport | Athens Eleftherios Venizelos International Airport (LGAV) |
Arrival
| Time | 2026-05-04 17:23 |
|---|---|
| Airport | Beirut Rafic Hariri International Airport (OLBA) |
| Time | Latitude | Longitude | Altitude | Speed | Heading |
|---|---|---|---|---|---|
| 2026-05-04 15:19 | 37.94088 | 23.95415 | 300 ft | 0 kts | 218° |
| 2026-05-04 15:32 | 37.94089 | 23.95415 | 300 ft | 0 kts | 218° |
| 2026-05-04 15:42 | 37.94088 | 23.95415 | 300 ft | 0 kts | 218° |
| 2026-05-04 15:43 | 37.94089 | 23.95415 | 300 ft | 0 kts | 218° |
| 2026-05-04 15:47 | 37.94089 | 23.95416 | 302 ft | 2 kts | 218° |
| 2026-05-04 15:47 | 37.94110 | 23.95435 | 303 ft | 4 kts | 216° |
| 2026-05-04 15:47 | 37.94132 | 23.95455 | 300 ft | 4 kts | 211° |
| 2026-05-04 15:47 | 37.94156 | 23.95470 | 301 ft | 4 kts | 197° |
| 2026-05-04 15:48 | 37.94179 | 23.95473 | 302 ft | 4 kts | 145° |
| 2026-05-04 15:48 | 37.94184 | 23.95469 | 301 ft | 0 kts | 127° |
| 2026-05-04 15:50 | 37.94175 | 23.95484 | 301 ft | 4 kts | 127° |
| 2026-05-04 15:50 | 37.94159 | 23.95512 | 300 ft | 7 kts | 127° |
| 2026-05-04 15:50 | 37.94118 | 23.95581 | 300 ft | 12 kts | 127° |
| 2026-05-04 15:51 | 37.94065 | 23.95649 | 298 ft | 12 kts | 164° |
| 2026-05-04 15:51 | 37.93978 | 23.95595 | 300 ft | 16 kts | 216° |
| 2026-05-04 15:51 | 37.93877 | 23.95500 | 298 ft | 20 kts | 216° |
| 2026-05-04 15:51 | 37.93758 | 23.95388 | 299 ft | 22 kts | 217° |
| 2026-05-04 15:52 | 37.93632 | 23.95267 | 299 ft | 23 kts | 216° |
| 2026-05-04 15:52 | 37.93500 | 23.95144 | 300 ft | 24 kts | 218° |
| 2026-05-04 15:52 | 37.93367 | 23.95015 | 302 ft | 25 kts | 217° |
| 2026-05-04 15:52 | 37.93228 | 23.94884 | 302 ft | 25 kts | 217° |
| 2026-05-04 15:53 | 37.93117 | 23.94779 | 299 ft | 18 kts | 218° |
| 2026-05-04 15:53 | 37.93026 | 23.94691 | 301 ft | 15 kts | 217° |
| 2026-05-04 15:53 | 37.92948 | 23.94617 | 303 ft | 13 kts | 217° |
| 2026-05-04 15:53 | 37.92873 | 23.94546 | 302 ft | 16 kts | 216° |
| 2026-05-04 15:54 | 37.92774 | 23.94452 | 302 ft | 18 kts | 217° |
| 2026-05-04 15:54 | 37.92677 | 23.94359 | 304 ft | 17 kts | 217° |
| 2026-05-04 15:54 | 37.92588 | 23.94287 | 303 ft | 14 kts | 191° |
| 2026-05-04 15:54 | 37.92522 | 23.94348 | 306 ft | 11 kts | 128° |
| 2026-05-04 15:55 | 37.92479 | 23.94418 | 309 ft | 9 kts | 128° |
| 2026-05-04 15:55 | 37.92493 | 23.94458 | 308 ft | 6 kts | 37° |
| 2026-05-04 15:55 | 37.92641 | 23.94601 | 306 ft | 64 kts | 37° |
| 2026-05-04 15:55 | 37.93224 | 23.95155 | 294 ft | 141 kts | 36° |
| 2026-05-04 15:56 | 37.94156 | 23.96030 | 519 ft | 178 kts | 39° |
| 2026-05-04 15:56 | 37.95161 | 23.96966 | 1418 ft | 177 kts | 35° |
| 2026-05-04 15:56 | 37.96126 | 23.97898 | 2080 ft | 179 kts | 34° |
| 2026-05-04 15:56 | 37.97171 | 23.98905 | 2381 ft | 200 kts | 33° |
| 2026-05-04 15:57 | 37.98351 | 24.00034 | 2748 ft | 224 kts | 34° |
| 2026-05-04 15:57 | 37.99634 | 24.01265 | 3376 ft | 235 kts | 35° |
| 2026-05-04 15:57 | 38.00953 | 24.02538 | 4160 ft | 241 kts | 34° |
| 2026-05-04 15:57 | 38.02297 | 24.03836 | 4954 ft | 244 kts | 33° |
| 2026-05-04 15:58 | 38.03655 | 24.05147 | 5774 ft | 246 kts | 33° |
| 2026-05-04 15:58 | 38.04995 | 24.06561 | 6437 ft | 262 kts | 45° |
| 2026-05-04 15:58 | 38.05844 | 24.08685 | 7080 ft | 282 kts | 75° |
| 2026-05-04 15:58 | 38.05729 | 24.11197 | 7836 ft | 295 kts | 108° |
| 2026-05-04 15:59 | 38.04803 | 24.13548 | 8656 ft | 299 kts | 116° |
| 2026-05-04 15:59 | 38.03785 | 24.15861 | 9480 ft | 302 kts | 117° |
| 2026-05-04 15:59 | 38.02749 | 24.18193 | 10282 ft | 305 kts | 116° |
| 2026-05-04 15:59 | 38.01692 | 24.20576 | 10577 ft | 325 kts | 116° |
| 2026-05-04 16:00 | 38.00544 | 24.23174 | 10751 ft | 349 kts | 116° |
| 2026-05-04 16:00 | 37.99329 | 24.25925 | 11101 ft | 363 kts | 116° |
| 2026-05-04 16:00 | 37.98089 | 24.28738 | 11770 ft | 368 kts | 116° |
| 2026-05-04 16:00 | 37.96837 | 24.31583 | 12476 ft | 370 kts | 116° |
| 2026-05-04 16:01 | 37.95578 | 24.34446 | 13190 ft | 373 kts | 116° |
| 2026-05-04 16:01 | 37.94309 | 24.37338 | 13900 ft | 375 kts | 115° |
| 2026-05-04 16:01 | 37.93050 | 24.40207 | 14506 ft | 378 kts | 115° |
| 2026-05-04 16:01 | 37.91760 | 24.43139 | 15055 ft | 382 kts | 115° |
| 2026-05-04 16:02 | 37.90459 | 24.46094 | 15635 ft | 385 kts | 116° |
| 2026-05-04 16:02 | 37.89149 | 24.49070 | 16219 ft | 388 kts | 116° |
| 2026-05-04 16:02 | 37.86494 | 24.55082 | 17358 ft | 394 kts | 116° |
| 2026-05-04 16:03 | 37.85149 | 24.58118 | 17910 ft | 397 kts | 116° |
| 2026-05-04 16:03 | 37.83808 | 24.61144 | 18442 ft | 400 kts | 116° |
| 2026-05-04 16:03 | 37.82441 | 24.64230 | 18905 ft | 402 kts | 116° |
| 2026-05-04 16:03 | 37.81066 | 24.67330 | 19384 ft | 404 kts | 116° |
| 2026-05-04 16:04 | 37.79685 | 24.70438 | 19862 ft | 407 kts | 117° |
| 2026-05-04 16:04 | 37.76889 | 24.76710 | 20809 ft | 411 kts | 117° |
| 2026-05-04 16:04 | 37.75481 | 24.79870 | 21273 ft | 413 kts | 117° |
| 2026-05-04 16:05 | 37.74068 | 24.83039 | 21721 ft | 415 kts | 117° |
| 2026-05-04 16:05 | 37.72642 | 24.86230 | 22167 ft | 417 kts | 117° |
| 2026-05-04 16:05 | 37.69775 | 24.92656 | 23045 ft | 422 kts | 117° |
| 2026-05-04 16:06 | 37.68332 | 24.95890 | 23462 ft | 424 kts | 117° |
| 2026-05-04 16:06 | 37.64434 | 25.04570 | 24393 ft | 431 kts | 117° |
| 2026-05-04 16:07 | 37.62462 | 25.08951 | 24842 ft | 434 kts | 117° |
| 2026-05-04 16:07 | 37.57957 | 25.18945 | 25835 ft | 439 kts | 117° |
| 2026-05-04 16:08 | 37.56448 | 25.22295 | 26171 ft | 441 kts | 117° |
| 2026-05-04 16:08 | 37.51885 | 25.32383 | 27138 ft | 446 kts | 117° |
| 2026-05-04 16:09 | 37.48801 | 25.39180 | 27759 ft | 448 kts | 117° |
| 2026-05-04 16:09 | 37.45701 | 25.46029 | 28377 ft | 451 kts | 117° |
| 2026-05-04 16:10 | 37.42568 | 25.52896 | 28933 ft | 454 kts | 117° |
| 2026-05-04 16:11 | 37.37836 | 25.63252 | 29899 ft | 454 kts | 117° |
| 2026-05-04 16:11 | 37.36261 | 25.66690 | 30288 ft | 453 kts | 117° |
| 2026-05-04 16:12 | 37.31531 | 25.77006 | 30972 ft | 457 kts | 117° |
| 2026-05-04 16:12 | 37.26737 | 25.87447 | 31585 ft | 463 kts | 117° |
| 2026-05-04 16:13 | 37.23490 | 25.94460 | 32026 ft | 465 kts | 117° |
| 2026-05-04 16:13 | 37.20249 | 26.01476 | 32419 ft | 469 kts | 117° |
| 2026-05-04 16:14 | 37.16968 | 26.08576 | 32886 ft | 472 kts | 117° |
| 2026-05-04 16:14 | 37.13654 | 26.15706 | 33327 ft | 474 kts | 118° |
| 2026-05-04 16:15 | 37.08650 | 26.26454 | 34034 ft | 477 kts | 118° |
| 2026-05-04 16:16 | 37.05295 | 26.33657 | 34423 ft | 479 kts | 118° |
| 2026-05-04 16:16 | 37.00249 | 26.44419 | 35057 ft | 480 kts | 118° |
| 2026-05-04 16:17 | 36.96862 | 26.51634 | 35461 ft | 481 kts | 118° |
| 2026-05-04 16:18 | 36.91777 | 26.62460 | 36032 ft | 482 kts | 118° |
| 2026-05-04 16:18 | 36.90073 | 26.66074 | 36210 ft | 482 kts | 119° |
| 2026-05-04 16:19 | 36.84949 | 26.76909 | 36617 ft | 485 kts | 119° |
| 2026-05-04 16:19 | 36.81513 | 26.84158 | 36943 ft | 485 kts | 119° |
| 2026-05-04 16:20 | 36.76334 | 26.95061 | 37056 ft | 487 kts | 120° |
| 2026-05-04 16:20 | 36.72896 | 27.02278 | 37057 ft | 487 kts | 120° |
| 2026-05-04 16:22 | 36.64993 | 27.20876 | 37048 ft | 485 kts | 112° |
| 2026-05-04 16:23 | 36.56883 | 27.43991 | 37032 ft | 487 kts | 112° |
| 2026-05-04 16:25 | 36.49069 | 27.66051 | 37032 ft | 487 kts | 112° |
| 2026-05-04 16:26 | 36.40118 | 27.91159 | 36995 ft | 487 kts | 112° |
| 2026-05-04 16:28 | 36.33421 | 28.10424 | 37021 ft | 486 kts | 105° |
| 2026-05-04 16:29 | 36.26638 | 28.36965 | 37013 ft | 484 kts | 106° |
| 2026-05-04 16:31 | 36.23188 | 28.49678 | 36979 ft | 484 kts | 107° |
| 2026-05-04 16:32 | 36.17174 | 28.73573 | 36969 ft | 486 kts | 107° |
| 2026-05-04 16:33 | 36.12953 | 28.89489 | 36961 ft | 487 kts | 107° |
| 2026-05-04 16:34 | 36.09795 | 29.01432 | 36950 ft | 487 kts | 107° |
| 2026-05-04 16:35 | 36.03816 | 29.24002 | 36920 ft | 488 kts | 107° |
| 2026-05-04 16:36 | 36.00270 | 29.37239 | 36894 ft | 488 kts | 108° |
| 2026-05-04 16:37 | 35.97418 | 29.47835 | 36891 ft | 489 kts | 108° |
| 2026-05-04 16:38 | 35.93134 | 29.63784 | 36889 ft | 489 kts | 108° |
| 2026-05-04 16:39 | 35.87772 | 29.83713 | 36876 ft | 489 kts | 108° |
| 2026-05-04 16:40 | 35.83434 | 29.99636 | 36886 ft | 489 kts | 108° |
| 2026-05-04 16:41 | 35.78402 | 30.19610 | 36878 ft | 490 kts | 107° |
| 2026-05-04 16:43 | 35.73311 | 30.39677 | 36885 ft | 491 kts | 108° |
| 2026-05-04 16:43 | 35.70230 | 30.51728 | 36885 ft | 492 kts | 108° |
| 2026-05-04 16:45 | 35.64045 | 30.75837 | 36892 ft | 493 kts | 108° |
| 2026-05-04 16:46 | 35.58902 | 30.95880 | 36883 ft | 493 kts | 107° |
| 2026-05-04 16:47 | 35.54850 | 31.12007 | 36875 ft | 494 kts | 108° |
| 2026-05-04 16:48 | 35.50734 | 31.28047 | 36877 ft | 494 kts | 108° |
| 2026-05-04 16:49 | 35.46590 | 31.44161 | 36871 ft | 495 kts | 108° |
| 2026-05-04 16:50 | 35.42429 | 31.60304 | 36869 ft | 497 kts | 108° |
| 2026-05-04 16:51 | 35.39266 | 31.72428 | 36869 ft | 497 kts | 109° |
| 2026-05-04 16:52 | 35.35067 | 31.88549 | 36867 ft | 498 kts | 109° |
| 2026-05-04 16:53 | 35.31882 | 32.00684 | 36861 ft | 499 kts | 109° |
| 2026-05-04 16:54 | 35.27621 | 32.16879 | 36866 ft | 500 kts | 109° |
| 2026-05-04 16:55 | 35.21242 | 32.41204 | 36870 ft | 502 kts | 109° |
| 2026-05-04 16:56 | 35.15856 | 32.61543 | 36890 ft | 503 kts | 109° |
| 2026-05-04 16:57 | 35.12597 | 32.73746 | 36880 ft | 504 kts | 110° |
| 2026-05-04 16:58 | 35.08246 | 32.89979 | 36884 ft | 505 kts | 110° |
| 2026-05-04 17:00 | 35.01321 | 33.14305 | 36896 ft | 506 kts | 112° |
| 2026-05-04 17:01 | 34.95453 | 33.34582 | 36895 ft | 507 kts | 112° |
| 2026-05-04 17:02 | 34.90730 | 33.50789 | 36896 ft | 507 kts | 112° |
| 2026-05-04 17:03 | 34.86985 | 33.62771 | 36898 ft | 503 kts | 122° |
| 2026-05-04 17:03 | 34.81291 | 33.73395 | 36883 ft | 498 kts | 129° |
| 2026-05-04 17:04 | 34.73538 | 33.87330 | 36891 ft | 498 kts | 129° |
| 2026-05-04 17:05 | 34.65702 | 34.01246 | 36885 ft | 498 kts | 130° |
| 2026-05-04 17:06 | 34.61760 | 34.08197 | 36324 ft | 504 kts | 130° |
| 2026-05-04 17:06 | 34.59757 | 34.11738 | 35229 ft | 513 kts | 130° |
| 2026-05-04 17:07 | 34.55705 | 34.18923 | 33439 ft | 522 kts | 130° |
| 2026-05-04 17:07 | 34.54319 | 34.21384 | 32830 ft | 523 kts | 130° |
| 2026-05-04 17:07 | 34.51595 | 34.26221 | 31670 ft | 524 kts | 130° |
| 2026-05-04 17:07 | 34.49534 | 34.29868 | 30807 ft | 525 kts | 131° |
| 2026-05-04 17:08 | 34.47467 | 34.33518 | 29933 ft | 526 kts | 131° |
| 2026-05-04 17:08 | 34.43350 | 34.40787 | 28192 ft | 519 kts | 129° |
| 2026-05-04 17:08 | 34.41327 | 34.44392 | 27394 ft | 515 kts | 129° |
| 2026-05-04 17:09 | 34.39337 | 34.47964 | 26706 ft | 508 kts | 129° |
| 2026-05-04 17:09 | 34.37380 | 34.51491 | 26020 ft | 502 kts | 128° |
| 2026-05-04 17:09 | 34.35444 | 34.54975 | 25373 ft | 495 kts | 128° |
| 2026-05-04 17:10 | 34.31639 | 34.61791 | 24131 ft | 481 kts | 127° |
| 2026-05-04 17:10 | 34.26100 | 34.71616 | 22192 ft | 463 kts | 126° |
| 2026-05-04 17:11 | 34.24526 | 34.74941 | 21533 ft | 461 kts | 116° |
| 2026-05-04 17:11 | 34.23493 | 34.78597 | 20883 ft | 459 kts | 106° |
| 2026-05-04 17:11 | 34.21838 | 34.85929 | 19818 ft | 446 kts | 107° |
| 2026-05-04 17:12 | 34.21012 | 34.89555 | 19097 ft | 446 kts | 107° |
| 2026-05-04 17:12 | 34.19383 | 34.96666 | 16923 ft | 434 kts | 107° |
| 2026-05-04 17:13 | 34.16989 | 35.07068 | 13362 ft | 422 kts | 108° |
| 2026-05-04 17:14 | 34.14682 | 35.17088 | 9865 ft | 404 kts | 108° |
| 2026-05-04 17:14 | 34.13947 | 35.20281 | 9165 ft | 385 kts | 108° |
| 2026-05-04 17:14 | 34.12575 | 35.26224 | 7873 ft | 352 kts | 109° |
| 2026-05-04 17:15 | 34.11929 | 35.29014 | 7249 ft | 339 kts | 109° |
| 2026-05-04 17:15 | 34.10690 | 35.34350 | 5999 ft | 320 kts | 110° |
| 2026-05-04 17:16 | 34.09514 | 35.39379 | 4743 ft | 307 kts | 110° |
| 2026-05-04 17:16 | 34.07843 | 35.46539 | 3261 ft | 273 kts | 110° |
| 2026-05-04 17:17 | 34.07354 | 35.48658 | 3231 ft | 252 kts | 110° |
| 2026-05-04 17:17 | 34.05198 | 35.53625 | 3231 ft | 202 kts | 148° |
| 2026-05-04 17:18 | 34.03995 | 35.54419 | 3232 ft | 195 kts | 165° |
| 2026-05-04 17:18 | 34.01426 | 35.54882 | 3237 ft | 185 kts | 178° |
| 2026-05-04 17:19 | 33.99026 | 35.54207 | 3252 ft | 180 kts | 220° |
| 2026-05-04 17:19 | 33.97193 | 35.52056 | 3231 ft | 182 kts | 226° |
| 2026-05-04 17:20 | 33.95694 | 35.50240 | 2889 ft | 175 kts | 225° |
| 2026-05-04 17:20 | 33.94030 | 35.48370 | 2286 ft | 154 kts | 219° |
| 2026-05-04 17:20 | 33.93219 | 35.47609 | 2147 ft | 146 kts | 215° |
| 2026-05-04 17:21 | 33.91379 | 35.46619 | 1749 ft | 143 kts | 197° |
| 2026-05-04 17:21 | 33.89072 | 35.46502 | 1311 ft | 144 kts | 175° |
| 2026-05-04 17:22 | 33.88118 | 35.46821 | 1100 ft | 143 kts | 168° |
| 2026-05-04 17:22 | 33.87479 | 35.47015 | 963 ft | 142 kts | 172° |
| 2026-05-04 17:23 | 33.84555 | 35.47751 | 184 ft | 143 kts | 169° |
| 2026-05-04 17:23 | 33.83600 | 35.48004 | 54 ft | 139 kts | 171° |
| 2026-05-04 17:23 | 33.82308 | 35.48365 | 25 ft | 34 kts | 168° |
| 2026-05-04 17:24 | 33.82081 | 35.48430 | 23 ft | 31 kts | 163° |
| 2026-05-04 17:24 | 33.81913 | 35.48549 | 22 ft | 0 kts | 134° |
| 2026-05-04 17:26 | 33.81866 | 35.48606 | 24 ft | 11 kts | 138° |
| 2026-05-04 17:26 | 33.81737 | 35.48830 | 19 ft | 16 kts | 105° |
| 2026-05-04 17:27 | 33.81769 | 35.49055 | 24 ft | 18 kts | 36° |
| 2026-05-04 17:27 | 33.81968 | 35.49223 | 24 ft | 13 kts | 35° |
| 2026-05-04 17:28 | 33.82057 | 35.49299 | 24 ft | 6 kts | 36° |
| 2026-05-04 17:29 | 33.82165 | 35.49389 | 23 ft | 10 kts | 33° |
| 2026-05-04 17:29 | 33.82316 | 35.49417 | 23 ft | 0 kts | 311° |